Terminal Aerodrome Forecast
Issued by NWS Huntsville, AL

Home | Current Version | Previous Version | Text Only | Print | Product List | Glossary On
Versions: 1 2 3 4 5 6 7 8 9 10 11 12 13 14 15
000
FTUS44 KHUN 231120
TAFHSV
TAF
KHSV 231120Z 2312/2412 18005KT P6SM SCT050
     FM231600 21008G16KT P6SM BKN050
     FM240000 17004KT P6SM SCT050
     FM240800 15007KT P6SM VCSH BKN025 BKN040 OVC080=

USA.gov is the U.S. government's official web portal to all federal, state and local government web resources and services.